Hovedside
METAR-TAF:

METAR-TAF

Lufthavner :

Larnaka internasjonale lufthavn

Larnaka, Kypros

breddegrad: 34-53N, lengdegrad: 033-38E, høyde over havet: 2 m

Gjeldene værobservasjon

Denne rapporten ble laget for 21 minutter siden, klokken 17:30 UTC
Vind 9 kt fra Vest-sørvest
Temperatur 14°C
Luftfuktighet 63%
Trykk 1017 hPa
Sikt 10 km eller mer
Få skyer i en høyde av 2000 ft

METAR: LCLK 121730Z 25009KT 9999 FEW020 14/07 Q1017 NOSIG

Tid: 19:51 (17:51 UTC)

Varsel

Denne rapporten ble laget for 21 minutter siden, klokken 17:30 UTC
Varsel gyldig fra 12. klokken 18 UTC til 13. klokken 18 UTC
Vind 12 kt fra Vest-sørvest
Sikt 10 km eller mer
Spredte skyer i en høyde av 2500 ft
Blir
fra 12. klokken 19 UTC til 12. klokken 22 UTC
Vind 9 kt fra Nordvest

TAF: LCLK 121730Z 1218/1318 24012KT 9999 SCT025 BECMG 1219/1222 32009KT

Værobservasjoner og værvarsel for over 4000 flyplasser (METAR- og TAF-rapporter).

Tilgjengelige stasjoner er representert av de røde og gule prikkene på kartet.

Hold musepekeren over prikken for å se navnet på stasjonen.

Klikk så for å se værobservasjoner og -varsler.

For å forandre kartet kan du klikke på den grønne knappen med svart kryss for å zoome inn, på den grønne knappen med strek for å zoome ut, eller på de grønne pilene for å se tilstøtende kart.


METAR-TAF: